createdAt,value
2022-10-11T00:00:01.435Z,9.85
2022-10-11T00:02:35.679Z,9.83
2022-10-11T00:05:10.299Z,9.78
2022-10-11T00:07:44.198Z,9.75
2022-10-11T00:10:18.443Z,9.73
2022-10-11T00:12:53.638Z,9.70
2022-10-11T00:15:27.250Z,9.68
2022-10-11T00:18:05.116Z,9.69
2022-10-11T00:20:39.060Z,9.66
2022-10-11T00:23:12.770Z,9.65
2022-10-11T00:25:46.590Z,9.65
2022-10-11T00:28:21.898Z,9.61
2022-10-11T00:30:55.531Z,9.60
2022-10-11T00:33:29.574Z,9.56
2022-10-11T00:36:04.067Z,9.55
2022-10-11T00:38:38.308Z,9.54
2022-10-11T00:41:11.795Z,9.55
2022-10-11T00:43:47.012Z,9.56
2022-10-11T00:46:30.596Z,9.54
2022-10-11T00:49:07.288Z,9.50
2022-10-11T00:51:46.892Z,9.48
2022-10-11T00:54:28.262Z,9.41
2022-10-11T00:57:06.393Z,9.41
2022-10-11T00:59:46.358Z,9.41
2022-10-11T01:02:21.536Z,9.41
2022-10-11T01:05:11.632Z,9.43
2022-10-11T01:07:49.638Z,9.48
2022-10-11T01:10:23.711Z,9.53
2022-10-11T01:13:09.739Z,9.59
2022-10-11T01:15:51.431Z,9.68
2022-10-11T01:18:31.575Z,9.75
2022-10-11T01:21:10.864Z,9.66
2022-10-11T01:24:14.063Z,9.67
2022-10-11T01:27:20.695Z,9.68
2022-10-11T01:30:04.355Z,9.63
2022-10-11T01:32:49.853Z,9.55
2022-10-11T01:35:29.412Z,9.49
2022-10-11T01:38:11.241Z,9.42
2022-10-11T01:40:51.071Z,9.41
2022-10-11T01:43:27.095Z,9.42
2022-10-11T01:46:03.362Z,9.38
2022-10-11T01:48:49.786Z,9.35
2022-10-11T01:51:26.105Z,9.32
2022-10-11T01:54:56.614Z,9.26
2022-10-11T01:57:45.737Z,9.27
2022-10-11T02:00:21.208Z,9.22
2022-10-11T02:03:12.473Z,9.20
2022-10-11T02:05:53.136Z,9.18
2022-10-11T02:08:33.720Z,9.21
2022-10-11T02:11:14.706Z,9.15
2022-10-11T02:13:52.879Z,9.05
2022-10-11T02:16:33.138Z,8.98
2022-10-11T02:19:09.635Z,8.96
2022-10-11T02:21:48.257Z,8.98
2022-10-11T02:24:27.178Z,8.97
2022-10-11T02:27:01.954Z,8.95
2022-10-11T02:29:40.678Z,8.95
2022-10-11T02:32:17.167Z,8.92
2022-10-11T02:34:54.826Z,8.86
2022-10-11T02:37:35.681Z,8.84
2022-10-11T02:40:16.536Z,8.80
2022-10-11T02:42:54.008Z,8.79
2022-10-11T02:45:32.881Z,8.77
2022-10-11T02:48:09.204Z,8.80
2022-10-11T02:50:43.666Z,8.82
2022-10-11T02:53:18.803Z,8.81
2022-10-11T02:55:56.950Z,8.84
2022-10-11T02:58:30.722Z,8.84
2022-10-11T03:01:04.699Z,8.84
2022-10-11T03:03:38.452Z,8.83
2022-10-11T03:06:16.718Z,8.84
2022-10-11T03:08:51.832Z,8.84
2022-10-11T03:11:25.502Z,8.80
2022-10-11T03:13:59.291Z,8.79
2022-10-11T03:16:33.425Z,8.77
2022-10-11T03:19:07.554Z,8.77
2022-10-11T03:21:41.014Z,8.79
2022-10-11T03:24:16.181Z,8.78
2022-10-11T03:26:49.731Z,8.77
2022-10-11T03:29:23.667Z,8.79
2022-10-11T03:31:57.365Z,8.78
2022-10-11T03:34:31.162Z,8.80
2022-10-11T03:37:04.698Z,8.84
2022-10-11T03:39:39.989Z,8.96
2022-10-11T03:42:14.537Z,9.07
2022-10-11T03:44:50.265Z,9.09
2022-10-11T03:47:24.885Z,9.05
2022-10-11T03:49:58.790Z,9.02
2022-10-11T03:52:32.615Z,9.01
2022-10-11T03:55:15.141Z,9.04
2022-10-11T03:57:48.665Z,9.03
2022-10-11T04:00:22.485Z,9.02
2022-10-11T04:02:56.177Z,9.04
2022-10-11T04:05:30.140Z,8.99
2022-10-11T04:08:06.274Z,9.02
2022-10-11T04:10:43.883Z,9.03
2022-10-11T04:13:17.706Z,8.97
2022-10-11T04:15:51.426Z,8.95
2022-10-11T04:18:25.018Z,8.85
2022-10-11T04:20:58.746Z,8.85
2022-10-11T04:23:32.714Z,8.85
2022-10-11T04:26:09.265Z,8.84
2022-10-11T04:28:42.926Z,8.75
2022-10-11T04:31:16.872Z,8.72
2022-10-11T04:33:50.813Z,8.71
2022-10-11T04:36:24.670Z,8.74
2022-10-11T04:38:58.288Z,8.74
2022-10-11T04:41:33.817Z,8.69
2022-10-11T04:44:07.863Z,8.69
2022-10-11T04:46:41.774Z,8.69
2022-10-11T04:49:15.475Z,8.66
2022-10-11T04:51:49.316Z,8.62
2022-10-11T04:54:22.878Z,8.61
2022-10-11T04:56:57.963Z,8.62
2022-10-11T04:59:31.717Z,8.63
2022-10-11T05:02:05.641Z,8.64
2022-10-11T05:04:39.282Z,8.64
2022-10-11T05:07:13.022Z,8.63
2022-10-11T05:09:46.557Z,8.60
2022-10-11T05:12:21.660Z,8.56
2022-10-11T05:14:55.152Z,8.56
2022-10-11T05:17:29.110Z,8.58
2022-10-11T05:20:02.841Z,8.54
2022-10-11T05:22:36.900Z,8.52
2022-10-11T05:25:10.608Z,8.55
2022-10-11T05:27:45.694Z,8.55
2022-10-11T05:30:19.307Z,8.50
2022-10-11T05:32:53.043Z,8.50
2022-10-11T05:35:26.664Z,8.51
2022-10-11T05:38:00.402Z,8.52
2022-10-11T05:40:34.452Z,8.44
2022-10-11T05:43:10.044Z,8.44
2022-10-11T05:45:44.904Z,8.44
2022-10-11T05:48:18.655Z,8.45
2022-10-11T05:50:52.245Z,8.46
2022-10-11T05:53:25.997Z,8.47
2022-10-11T05:55:59.770Z,8.51
2022-10-11T05:58:35.034Z,8.55
2022-10-11T06:01:08.711Z,8.58
2022-10-11T06:03:42.536Z,8.58
2022-10-11T06:06:16.371Z,8.67
2022-10-11T06:08:50.494Z,8.72
2022-10-11T06:11:26.277Z,8.66
2022-10-11T06:14:01.498Z,8.71
2022-10-11T06:16:35.179Z,8.76
2022-10-11T06:19:09.009Z,8.80
2022-10-11T06:21:42.485Z,8.81
2022-10-11T06:24:16.456Z,8.87
2022-10-11T06:26:50.208Z,8.98
2022-10-11T06:29:25.433Z,9.02
2022-10-11T06:31:59.435Z,9.11
2022-10-11T06:34:33.641Z,9.18
2022-10-11T06:37:07.295Z,9.28
2022-10-11T06:39:41.072Z,9.34
2022-10-11T06:42:14.925Z,9.38
2022-10-11T06:44:50.004Z,9.43
2022-10-11T06:47:23.495Z,9.45
2022-10-11T06:49:57.306Z,9.56
2022-10-11T06:52:30.852Z,9.63
2022-10-11T06:55:05.192Z,9.64
2022-10-11T06:57:38.886Z,9.68
2022-10-11T07:00:15.601Z,9.62
2022-10-11T07:02:49.844Z,9.73
2022-10-11T07:05:23.615Z,9.81
2022-10-11T07:07:57.229Z,9.87
2022-10-11T07:10:30.988Z,9.97
2022-10-11T07:13:04.649Z,10.11
2022-10-11T07:15:41.145Z,10.15
2022-10-11T07:18:14.742Z,10.21
2022-10-11T07:20:48.555Z,10.36
2022-10-11T07:23:21.992Z,10.27
2022-10-11T07:25:55.731Z,10.46
2022-10-11T07:28:30.753Z,11.15
2022-10-11T07:31:08.661Z,12.26
2022-10-11T07:33:42.111Z,11.75
2022-10-11T07:36:15.862Z,11.32
2022-10-11T07:38:50.199Z,11.16
2022-10-11T07:41:24.026Z,11.05
2022-10-11T07:43:57.618Z,10.99
2022-10-11T07:46:33.247Z,10.93
2022-10-11T07:49:06.831Z,10.95
2022-10-11T07:51:40.529Z,10.97
2022-10-11T07:54:14.035Z,11.09
2022-10-11T07:56:47.729Z,11.11
2022-10-11T07:59:21.365Z,11.16
2022-10-11T08:01:57.006Z,11.19
2022-10-11T08:04:30.510Z,11.26
2022-10-11T08:07:04.255Z,11.26
2022-10-11T08:09:37.886Z,11.17
2022-10-11T08:12:11.724Z,11.26
2022-10-11T08:14:45.218Z,11.28
2022-10-11T08:17:20.252Z,11.28
2022-10-11T08:19:53.996Z,11.38
2022-10-11T08:22:27.746Z,11.39
2022-10-11T08:25:01.433Z,11.50
2022-10-11T08:27:35.364Z,11.59
2022-10-11T08:30:10.299Z,11.61
2022-10-11T08:32:45.479Z,11.71
2022-10-11T08:35:18.913Z,11.79
2022-10-11T08:37:52.620Z,11.85
2022-10-11T08:40:27.337Z,11.66
2022-10-11T08:43:07.275Z,11.85
2022-10-11T08:45:47.614Z,11.98
2022-10-11T08:48:31.824Z,12.04
2022-10-11T08:51:13.226Z,12.10
2022-10-11T08:53:52.756Z,12.15
2022-10-11T08:56:27.502Z,12.26
2022-10-11T08:59:05.664Z,12.44
2022-10-11T09:01:45.414Z,12.52
2022-10-11T09:04:20.965Z,12.64
2022-10-11T09:07:05.155Z,12.67
2022-10-11T09:10:08.015Z,12.71
2022-10-11T09:12:51.335Z,12.85
2022-10-11T09:15:33.569Z,12.91
2022-10-11T09:18:22.390Z,12.94
2022-10-11T09:21:06.153Z,12.97
2022-10-11T09:23:53.904Z,13.02
2022-10-11T09:26:30.059Z,13.13
2022-10-11T09:29:11.701Z,13.17
2022-10-11T09:31:49.690Z,13.20
2022-10-11T09:34:26.143Z,13.25
2022-10-11T09:37:12.451Z,13.25
2022-10-11T09:39:51.870Z,13.39
2022-10-11T09:42:25.840Z,13.47
2022-10-11T09:45:00.102Z,13.57
2022-10-11T09:47:34.313Z,13.64
2022-10-11T09:50:16.154Z,13.71
2022-10-11T09:52:52.341Z,13.73
2022-10-11T09:55:38.702Z,13.78
2022-10-11T09:58:28.299Z,13.90
2022-10-11T10:01:07.972Z,13.95
2022-10-11T10:03:44.240Z,13.95
2022-10-11T10:06:23.446Z,14.28
2022-10-11T10:09:23.075Z,14.53
2022-10-11T10:11:57.672Z,14.79
2022-10-11T10:14:31.976Z,14.98
2022-10-11T10:17:08.564Z,15.17
2022-10-11T10:19:50.130Z,15.28
2022-10-11T10:22:27.002Z,15.28
2022-10-11T10:25:07.831Z,15.17
2022-10-11T10:27:46.713Z,15.04
2022-10-11T10:30:20.732Z,15.01
2022-10-11T10:33:00.111Z,14.96
2022-10-11T10:35:38.420Z,15.03
2022-10-11T10:38:17.616Z,15.08
2022-10-11T10:40:56.439Z,15.02
2022-10-11T10:43:34.863Z,15.06
2022-10-11T10:46:18.972Z,15.02
2022-10-11T10:52:11.294Z,15.15
2022-10-11T10:54:53.742Z,15.29
2022-10-11T10:57:37.475Z,15.49
2022-10-11T11:00:15.931Z,15.70
2022-10-11T11:02:58.043Z,15.74
2022-10-11T11:05:46.554Z,15.70
2022-10-11T11:08:37.215Z,15.70
2022-10-11T11:11:26.455Z,15.71
2022-10-11T11:14:11.564Z,15.57
2022-10-11T11:16:51.368Z,15.26
2022-10-11T11:19:38.854Z,15.20
2022-10-11T11:22:22.402Z,15.13
2022-10-11T11:25:04.284Z,15.08
2022-10-11T11:27:50.820Z,15.04
2022-10-11T11:30:33.253Z,14.97
2022-10-11T11:33:19.541Z,14.98
2022-10-11T11:35:55.327Z,15.04
2022-10-11T11:38:39.962Z,15.07
2022-10-11T11:41:18.409Z,15.02
2022-10-11T11:44:01.680Z,15.13
2022-10-11T11:46:43.484Z,15.34
2022-10-11T11:49:22.748Z,15.59
2022-10-11T11:51:57.914Z,15.67
2022-10-11T11:54:43.164Z,15.55
2022-10-11T11:57:29.115Z,15.62
2022-10-11T12:00:07.757Z,15.55
2022-10-11T12:02:48.704Z,15.53
2022-10-11T12:05:25.619Z,15.58
2022-10-11T12:08:02.267Z,15.62
2022-10-11T12:10:38.520Z,15.65
2022-10-11T12:13:34.807Z,15.66
2022-10-11T12:16:12.287Z,15.53
2022-10-11T12:18:55.290Z,15.47
2022-10-11T12:21:32.730Z,15.47
2022-10-11T12:24:13.097Z,15.49
2022-10-11T12:26:47.538Z,15.52
2022-10-11T12:29:47.215Z,15.53
2022-10-11T12:32:52.915Z,15.55
2022-10-11T12:36:02.663Z,15.58
2022-10-11T12:38:41.817Z,15.45
2022-10-11T12:41:53.634Z,15.47
2022-10-11T12:44:29.100Z,15.45
2022-10-11T12:47:35.496Z,15.36
2022-10-11T12:50:18.639Z,15.39
2022-10-11T12:53:05.173Z,15.25
2022-10-11T12:55:57.043Z,15.26
2022-10-11T12:58:38.547Z,15.21
2022-10-11T13:01:34.466Z,15.11
2022-10-11T13:04:10.914Z,15.07
2022-10-11T13:06:48.534Z,15.23
2022-10-11T13:09:29.783Z,15.27
2022-10-11T13:12:07.700Z,15.36
2022-10-11T13:14:45.279Z,15.49
2022-10-11T13:17:22.847Z,15.70
2022-10-11T13:20:01.224Z,15.89
2022-10-11T13:22:36.472Z,15.93
2022-10-11T13:25:16.935Z,15.95
2022-10-11T13:27:52.411Z,15.83
2022-10-11T13:30:29.265Z,15.74
2022-10-11T13:33:08.596Z,15.65
2022-10-11T13:35:42.607Z,15.56
2022-10-11T13:38:22.510Z,15.56
2022-10-11T13:40:59.567Z,15.58
2022-10-11T13:43:35.007Z,15.56
2022-10-11T13:46:17.427Z,15.59
2022-10-11T13:49:02.615Z,15.60
2022-10-11T13:51:38.422Z,15.57
2022-10-11T13:54:13.939Z,15.64
2022-10-11T13:56:51.976Z,15.72
2022-10-11T13:59:27.435Z,15.72
2022-10-11T14:02:04.364Z,15.58
2022-10-11T14:04:41.371Z,15.63
2022-10-11T14:07:23.486Z,15.58
2022-10-11T14:09:57.147Z,15.53
2022-10-11T14:12:35.521Z,15.41
2022-10-11T14:15:25.249Z,15.35
2022-10-11T14:18:00.671Z,15.20
2022-10-11T14:20:39.354Z,15.10
2022-10-11T14:23:14.208Z,15.04
2022-10-11T14:25:48.182Z,15.05
2022-10-11T14:28:23.426Z,14.93
2022-10-11T14:30:56.995Z,14.84
2022-10-11T14:33:31.023Z,14.82
2022-10-11T14:36:05.580Z,14.74
2022-10-11T14:38:39.635Z,14.71
2022-10-11T14:41:13.025Z,14.73
2022-10-11T14:43:48.319Z,14.74
2022-10-11T14:46:24.387Z,14.68
2022-10-11T14:48:58.317Z,14.62
2022-10-11T14:51:35.521Z,14.57
2022-10-11T14:54:09.636Z,14.47
2022-10-11T14:56:43.207Z,14.41
2022-10-11T14:59:20.497Z,14.29
2022-10-11T15:01:54.862Z,14.21
2022-10-11T15:04:29.744Z,14.17
2022-10-11T15:07:04.550Z,14.19
2022-10-11T15:09:38.440Z,14.22
2022-10-11T15:12:12.186Z,14.22
2022-10-11T15:14:47.324Z,14.20
2022-10-11T15:17:20.873Z,14.23
2022-10-11T15:19:54.858Z,14.19
2022-10-11T15:22:31.814Z,14.23
2022-10-11T15:25:06.355Z,14.21
2022-10-11T15:27:42.221Z,14.17
2022-10-11T15:30:20.229Z,14.12
2022-10-11T15:32:54.781Z,14.14
2022-10-11T15:35:29.704Z,14.12
2022-10-11T15:38:03.651Z,14.12
2022-10-11T15:40:37.829Z,14.13
2022-10-11T15:43:11.343Z,14.13
2022-10-11T15:45:47.103Z,14.11
2022-10-11T15:48:22.329Z,14.10
2022-10-11T15:50:56.184Z,14.07
2022-10-11T15:53:31.375Z,14.06
2022-10-11T15:56:07.364Z,14.05
2022-10-11T15:58:42.251Z,14.04
2022-10-11T16:01:19.351Z,14.09
2022-10-11T16:03:52.934Z,14.02
2022-10-11T16:06:27.545Z,13.95
2022-10-11T16:09:01.393Z,13.92
2022-10-11T16:11:35.421Z,13.88
2022-10-11T16:14:08.972Z,13.85
2022-10-11T16:16:44.011Z,13.77
2022-10-11T16:19:17.560Z,13.76
2022-10-11T16:21:51.293Z,13.77
2022-10-11T16:24:24.939Z,13.76
2022-10-11T16:26:58.737Z,13.72
2022-10-11T16:29:32.279Z,13.70
2022-10-11T16:32:08.112Z,13.70
2022-10-11T16:34:41.887Z,13.68
2022-10-11T16:37:15.955Z,13.67
2022-10-11T16:39:49.716Z,13.65
2022-10-11T16:42:23.535Z,13.63
2022-10-11T16:44:57.554Z,13.59
2022-10-11T16:47:32.773Z,13.58
2022-10-11T16:50:07.905Z,13.56
2022-10-11T16:52:41.906Z,13.57
2022-10-11T16:55:15.357Z,13.53
2022-10-11T16:57:49.248Z,13.50
2022-10-11T17:00:23.004Z,13.45
2022-10-11T17:02:58.137Z,13.40
2022-10-11T17:05:31.694Z,13.39
2022-10-11T17:08:05.723Z,13.35
2022-10-11T17:10:40.103Z,13.32
2022-10-11T17:13:14.202Z,13.35
2022-10-11T17:15:47.937Z,13.31
2022-10-11T17:18:23.167Z,13.30
2022-10-11T17:21:02.713Z,13.22
2022-10-11T17:23:37.157Z,13.12
2022-10-11T17:26:16.092Z,13.08
2022-10-11T17:28:51.660Z,13.03
2022-10-11T17:31:26.112Z,13.02
2022-10-11T17:34:02.174Z,12.99
2022-10-11T17:36:36.212Z,12.96
2022-10-11T17:39:14.629Z,12.90
2022-10-11T17:41:48.371Z,12.83
2022-10-11T17:44:22.394Z,12.80
2022-10-11T17:46:56.045Z,12.76
2022-10-11T17:49:31.454Z,12.69
2022-10-11T17:52:05.109Z,12.61
2022-10-11T17:54:39.105Z,12.54
2022-10-11T17:57:12.703Z,12.51
2022-10-11T17:59:46.386Z,12.50
2022-10-11T18:02:20.054Z,12.52
2022-10-11T18:04:55.197Z,12.50
2022-10-11T18:07:28.787Z,12.53
2022-10-11T18:10:03.010Z,12.51
2022-10-11T18:12:36.706Z,12.50
2022-10-11T18:15:11.283Z,12.47
2022-10-11T18:17:44.890Z,12.46
2022-10-11T18:20:20.101Z,12.46
2022-10-11T18:22:54.523Z,12.43
2022-10-11T18:25:28.284Z,12.41
2022-10-11T18:28:02.000Z,12.40
2022-10-11T18:30:35.884Z,12.35
2022-10-11T18:33:09.725Z,12.32
2022-10-11T18:35:44.917Z,12.27
2022-10-11T18:38:18.405Z,12.22
2022-10-11T18:40:52.088Z,12.18
2022-10-11T18:43:29.051Z,12.16
2022-10-11T18:46:10.423Z,12.12
2022-10-11T18:48:46.186Z,12.08
2022-10-11T18:51:23.065Z,12.04
2022-10-11T18:53:58.575Z,12.00
2022-10-11T18:56:34.578Z,11.95
2022-10-11T18:59:08.804Z,11.89
2022-10-11T19:01:44.410Z,11.83
2022-10-11T19:04:19.669Z,11.78
2022-10-11T19:06:54.974Z,11.70
2022-10-11T19:09:28.861Z,11.66
2022-10-11T19:12:02.949Z,11.63
2022-10-11T19:14:36.642Z,11.62
2022-10-11T19:17:12.309Z,11.56
2022-10-11T19:19:46.115Z,11.51
2022-10-11T19:22:21.333Z,11.47
2022-10-11T19:24:54.890Z,11.43
2022-10-11T19:27:28.605Z,11.38
2022-10-11T19:30:02.123Z,11.34
2022-10-11T19:32:36.359Z,11.29
2022-10-11T19:35:10.793Z,11.24
2022-10-11T19:37:45.929Z,11.20
2022-10-11T19:40:19.909Z,11.14
2022-10-11T19:42:53.822Z,11.09
2022-10-11T19:45:27.502Z,11.07
2022-10-11T19:48:01.354Z,11.03
2022-10-11T19:50:34.945Z,10.96
2022-10-11T19:53:10.424Z,10.92
2022-10-11T19:55:46.455Z,10.86
2022-10-11T19:58:20.479Z,10.84
2022-10-11T20:01:00.685Z,10.83
2022-10-11T20:03:35.215Z,10.79
2022-10-11T20:06:09.850Z,10.78
2022-10-11T20:08:48.224Z,10.78
2022-10-11T20:11:27.062Z,10.74
2022-10-11T20:14:00.963Z,10.66
2022-10-11T20:16:34.590Z,10.61
2022-10-11T20:19:08.234Z,10.53
2022-10-11T20:21:41.935Z,10.45
2022-10-11T20:24:17.036Z,10.39
2022-10-11T20:26:50.636Z,10.36
2022-10-11T20:29:25.317Z,10.36
2022-10-11T20:31:59.334Z,10.36
2022-10-11T20:34:33.307Z,10.39
2022-10-11T20:37:06.951Z,10.32
2022-10-11T20:39:42.040Z,10.32
2022-10-11T20:42:15.528Z,10.30
2022-10-11T20:44:49.378Z,10.23
2022-10-11T20:47:23.030Z,10.16
2022-10-11T20:49:56.848Z,10.10
2022-10-11T20:52:30.585Z,10.09
2022-10-11T20:55:07.016Z,10.07
2022-10-11T20:57:40.611Z,10.01
2022-10-11T21:00:15.391Z,9.96
2022-10-11T21:02:50.825Z,9.88
2022-10-11T21:05:24.552Z,9.84
2022-10-11T21:07:58.648Z,9.84
2022-10-11T21:10:33.926Z,9.84
2022-10-11T21:13:07.543Z,9.84
2022-10-11T21:15:41.740Z,9.86
2022-10-11T21:18:15.589Z,9.85
2022-10-11T21:20:49.332Z,9.82
2022-10-11T21:23:22.867Z,9.82
2022-10-11T21:26:01.395Z,9.74
2022-10-11T21:28:35.560Z,9.70
2022-10-11T21:31:11.472Z,9.61
2022-10-11T21:33:45.801Z,9.54
2022-10-11T21:36:21.292Z,9.52
2022-10-11T21:38:54.997Z,9.49
2022-10-11T21:41:30.877Z,9.47
2022-10-11T21:44:05.359Z,9.45
2022-10-11T21:47:05.587Z,9.43
2022-10-11T21:49:33.211Z,9.41
2022-10-11T21:52:07.173Z,9.39
2022-10-11T21:54:40.918Z,9.38
2022-10-11T21:57:15.945Z,9.35
2022-10-11T21:59:49.498Z,9.34
2022-10-11T22:02:23.174Z,9.31
2022-10-11T22:04:56.756Z,9.27
2022-10-11T22:07:30.562Z,9.27
2022-10-11T22:10:04.303Z,9.21
2022-10-11T22:12:39.554Z,9.16
2022-10-11T22:15:13.088Z,9.18
2022-10-11T22:17:47.042Z,9.16
2022-10-11T22:20:20.612Z,9.12
2022-10-11T22:22:54.690Z,9.10
2022-10-11T22:25:28.179Z,9.07
2022-10-11T22:28:03.488Z,9.05
2022-10-11T22:30:37.201Z,9.06
2022-10-11T22:33:10.946Z,9.07
2022-10-11T22:35:44.387Z,9.07
2022-10-11T22:38:18.140Z,9.03
2022-10-11T22:40:51.942Z,8.97
2022-10-11T22:43:27.073Z,8.91
2022-10-11T22:46:00.542Z,8.85
2022-10-11T22:48:34.464Z,8.86
2022-10-11T22:51:08.423Z,8.86
2022-10-11T22:53:42.153Z,8.81
2022-10-11T22:56:15.715Z,8.76
2022-10-11T22:58:50.859Z,8.68
2022-10-11T23:01:24.324Z,8.67
2022-10-11T23:03:58.045Z,8.70
2022-10-11T23:06:32.021Z,8.71
2022-10-11T23:09:05.961Z,8.70
2022-10-11T23:11:39.541Z,8.73
2022-10-11T23:14:14.932Z,8.68
2022-10-11T23:16:48.585Z,8.63
2022-10-11T23:19:22.444Z,8.62
2022-10-11T23:21:56.140Z,8.55
2022-10-11T23:24:29.892Z,8.52
2022-10-11T23:27:03.461Z,8.45
2022-10-11T23:29:40.102Z,8.45
2022-10-11T23:32:13.683Z,8.44
2022-10-11T23:34:47.386Z,8.46
2022-10-11T23:37:20.931Z,8.47
2022-10-11T23:39:57.259Z,8.48
2022-10-11T23:42:33.696Z,8.44
2022-10-11T23:45:10.413Z,8.39
2022-10-11T23:47:44.242Z,8.40
2022-10-11T23:50:18.164Z,8.40
2022-10-11T23:52:53.045Z,8.35
2022-10-11T23:55:26.891Z,8.33
2022-10-11T23:58:00.555Z,8.32
